Time;durP1;ratioP1;P1;durP2;ratioP2;P2;SDS_P1;SDS_P2;PMS_P1;PMS_P2;Temp;Humidity;BMP_temperature;BMP_pressure;BME280_temperature;BME280_humidity;BME280_pressure;Samples;Min_cycle;Max_cycle;Signal;HPM_P1;HPM_P2
2022/06/16 00:01:22;;;;;;;12.80;8.33;;;;;;;17.20;100.00;95154.03;4957016;28;20232;-77
2022/06/16 00:03:59;;;;;;;13.07;8.73;;;;;;;17.03;100.00;95147.00;4958389;28;20231;-77
2022/06/16 00:06:33;;;;;;;13.10;8.33;;;;;;;16.87;100.00;95142.63;4957875;28;20216;-77
2022/06/16 00:09:07;;;;;;;17.37;8.30;;;;;;;16.72;100.00;95145.06;4958321;28;20202;-77
2022/06/16 00:11:41;;;;;;;10.43;7.97;;;;;;;16.68;100.00;95138.69;4955895;28;20287;-77
2022/06/16 00:14:14;;;;;;;13.33;8.63;;;;;;;16.76;100.00;95140.13;4952383;28;20318;-78
2022/06/16 00:16:45;;;;;;;16.13;9.73;;;;;;;16.79;100.00;95142.25;4959343;28;20263;-76
2022/06/16 00:19:18;;;;;;;16.90;9.50;;;;;;;16.70;100.00;95139.25;4937414;28;20336;-77
2022/06/16 00:21:52;;;;;;;14.83;9.80;;;;;;;16.78;100.00;95151.16;4959563;28;20751;-77
2022/06/16 00:24:27;;;;;;;19.37;9.57;;;;;;;16.78;100.00;95140.66;4957454;28;20543;-77
2022/06/16 00:27:01;;;;;;;16.17;9.50;;;;;;;16.81;100.00;95140.19;4956906;28;20228;-77
2022/06/16 00:29:33;;;;;;;15.77;9.73;;;;;;;16.78;100.00;95138.03;4954086;28;20668;-78
2022/06/16 00:32:04;;;;;;;17.30;9.17;;;;;;;16.76;100.00;95142.75;4952632;28;20216;-78
2022/06/16 00:34:39;;;;;;;14.63;9.30;;;;;;;16.77;100.00;95142.50;4958898;28;20224;-78
2022/06/16 00:37:12;;;;;;;13.87;9.13;;;;;;;16.80;100.00;95143.81;4955078;28;20921;-77
2022/06/16 00:39:48;;;;;;;12.83;8.30;;;;;;;16.82;100.00;95147.81;4952910;28;20209;-77
2022/06/16 00:42:21;;;;;;;19.13;8.50;;;;;;;16.87;100.00;95141.81;4954433;28;20200;-78
2022/06/16 00:44:57;;;;;;;19.10;9.00;;;;;;;16.87;100.00;95141.81;4956848;28;20220;-78
2022/06/16 00:47:31;;;;;;;13.80;8.93;;;;;;;16.89;100.00;95135.28;4953971;28;20318;-78
2022/06/16 00:50:06;;;;;;;15.83;9.17;;;;;;;16.88;100.00;95138.19;4961162;28;20746;-77
2022/06/16 00:52:41;;;;;;;15.17;9.00;;;;;;;16.89;100.00;95137.13;4952814;28;20243;-77
2022/06/16 00:55:17;;;;;;;10.73;8.47;;;;;;;16.84;100.00;95129.19;4955080;28;20242;-77
2022/06/16 00:57:52;;;;;;;15.37;9.50;;;;;;;16.80;100.00;95128.88;4955938;28;20196;-77
2022/06/16 01:00:28;;;;;;;16.97;9.20;;;;;;;16.67;100.00;95131.88;4954511;28;20212;-77
2022/06/16 01:03:00;;;;;;;16.17;9.63;;;;;;;16.64;100.00;95121.06;4959389;28;20691;-77
2022/06/16 01:05:34;;;;;;;18.77;9.57;;;;;;;16.68;100.00;95133.44;4959039;28;20223;-77
2022/06/16 01:08:12;;;;;;;20.03;9.80;;;;;;;16.67;100.00;95129.25;4953326;28;20216;-78
2022/06/16 01:10:52;;;;;;;15.87;9.73;;;;;;;16.64;100.00;95134.19;4953533;28;20219;-78
2022/06/16 01:13:44;;;;;;;14.80;9.57;;;;;;;16.61;100.00;95126.78;4955445;28;20213;-78
2022/06/16 01:16:26;;;;;;;16.20;9.70;;;;;;;16.55;100.00;95127.75;4955269;28;20277;-77
2022/06/16 01:19:10;;;;;;;25.40;11.00;;;;;;;16.57;100.00;95133.56;4959159;28;20317;-78
2022/06/16 01:22:01;;;;;;;19.27;10.53;;;;;;;16.56;100.00;95124.91;4957715;28;20212;-78
2022/06/16 01:24:56;;;;;;;17.17;10.20;;;;;;;16.58;100.00;95122.84;4958223;28;20212;-78
2022/06/16 01:27:51;;;;;;;16.00;10.23;;;;;;;16.48;100.00;95122.66;4958025;28;20201;-78
2022/06/16 01:30:35;;;;;;;11.57;10.20;;;;;;;16.45;100.00;95125.75;4957966;28;20209;-77
2022/06/16 01:33:20;;;;;;;16.90;9.80;;;;;;;16.37;100.00;95118.31;4951697;28;20211;-77
2022/06/16 01:36:01;;;;;;;13.60;9.57;;;;;;;16.41;100.00;95122.06;4954229;28;20292;-76
2022/06/16 01:38:45;;;;;;;14.43;9.73;;;;;;;16.41;100.00;95125.47;4957947;28;20209;-78
2022/06/16 01:41:21;;;;;;;14.37;9.90;;;;;;;16.37;100.00;95111.25;4960035;28;20224;-76
2022/06/16 01:44:03;;;;;;;18.17;10.33;;;;;;;16.39;100.00;95113.63;4962677;28;20676;-77
2022/06/16 01:46:42;;;;;;;15.57;10.40;;;;;;;16.30;100.00;95099.34;4956648;28;20230;-77
2022/06/16 01:49:21;;;;;;;13.97;11.17;;;;;;;16.34;100.00;95109.09;4958268;28;20226;-77
2022/06/16 01:52:02;;;;;;;15.83;10.87;;;;;;;16.27;100.00;95105.06;4959152;28;20276;-76
2022/06/16 01:54:41;;;;;;;16.03;10.33;;;;;;;16.28;100.00;95114.50;4957099;28;20232;-77
2022/06/16 01:57:18;;;;;;;11.97;9.40;;;;;;;16.27;100.00;95107.69;4956740;28;20224;-77
2022/06/16 02:00:02;;;;;;;12.83;9.90;;;;;;;16.30;100.00;95108.00;4963603;28;20877;-76
2022/06/16 02:02:42;;;;;;;10.03;8.40;;;;;;;16.29;100.00;95103.00;4960483;28;20554;-77
2022/06/16 02:05:17;;;;;;;13.40;9.10;;;;;;;16.28;100.00;95107.44;4957113;28;20203;-77
2022/06/16 02:07:55;;;;;;;12.90;9.27;;;;;;;16.32;100.00;95108.56;4959031;28;20204;-77
2022/06/16 02:10:33;;;;;;;15.47;8.67;;;;;;;16.33;100.00;95109.34;4955758;28;20290;-76
2022/06/16 02:13:11;;;;;;;14.13;9.07;;;;;;;16.32;100.00;95116.44;4958041;28;20217;-76
2022/06/16 02:15:51;;;;;;;11.47;8.50;;;;;;;16.31;100.00;95108.78;4960598;28;20806;-76
2022/06/16 02:18:34;;;;;;;13.17;8.20;;;;;;;16.30;100.00;95112.47;4957843;28;20205;-75
2022/06/16 02:21:13;;;;;;;11.67;8.73;;;;;;;16.27;100.00;95113.75;4956829;28;20197;-77
2022/06/16 02:23:47;;;;;;;14.60;8.80;;;;;;;16.23;100.00;95122.31;4957717;28;20217;-76
2022/06/16 02:26:23;;;;;;;12.80;8.50;;;;;;;16.19;100.00;95118.59;4955653;28;20216;-76
2022/06/16 02:28:59;;;;;;;9.47;8.20;;;;;;;16.16;100.00;95119.09;4959023;28;20303;-77
2022/06/16 02:31:47;;;;;;;9.77;7.97;;;;;;;16.09;100.00;95123.69;4960419;28;20209;-78
2022/06/16 02:34:35;;;;;;;10.33;8.07;;;;;;;16.15;100.00;95120.91;4959381;28;20213;-77
2022/06/16 02:37:48;;;;;;;12.43;7.97;;;;;;;16.12;100.00;95113.53;4956734;28;20201;-77
2022/06/16 02:40:50;;;;;;;12.30;8.00;;;;;;;16.04;100.00;95126.25;4958957;28;20204;-78
2022/06/16 02:43:41;;;;;;;9.40;8.07;;;;;;;16.05;100.00;95133.84;4952573;28;20485;-77
2022/06/16 02:46:21;;;;;;;12.57;8.00;;;;;;;16.05;100.00;95136.47;4956898;28;20698;-77
2022/06/16 02:49:04;;;;;;;10.17;7.43;;;;;;;15.93;100.00;95133.16;4959591;28;20315;-77
2022/06/16 02:51:44;;;;;;;9.40;7.53;;;;;;;15.90;100.00;95136.28;4954214;28;20233;-77
2022/06/16 02:54:25;;;;;;;12.00;8.47;;;;;;;15.81;100.00;95127.97;4958996;28;20300;-79
2022/06/16 02:57:07;;;;;;;9.57;7.83;;;;;;;15.92;100.00;95138.63;4962809;28;20212;-79
2022/06/16 02:59:48;;;;;;;11.87;7.97;;;;;;;15.94;100.00;95136.56;4960862;28;20207;-78
2022/06/16 03:02:29;;;;;;;10.03;8.20;;;;;;;16.01;100.00;95142.47;4954287;28;20299;-78
2022/06/16 03:05:04;;;;;;;12.73;8.53;;;;;;;16.01;100.00;95130.16;4960152;28;20206;-82
2022/06/16 03:07:39;;;;;;;12.20;8.13;;;;;;;15.99;100.00;95129.56;4955058;28;20601;-79
2022/06/16 03:10:50;;;;;;;14.20;8.00;;;;;;;16.00;100.00;95146.09;4952070;28;21390;-79
2022/06/16 03:13:16;;;;;;;12.73;8.47;;;;;;;15.99;100.00;95134.03;4954253;28;20220;-79
2022/06/16 03:15:47;;;;;;;13.47;8.07;;;;;;;15.98;100.00;95135.06;4959234;28;20220;-79
2022/06/16 03:18:17;;;;;;;13.37;8.43;;;;;;;15.99;100.00;95140.06;4954844;28;20212;-79
2022/06/16 03:20:48;;;;;;;11.00;8.23;;;;;;;16.04;100.00;95137.53;4956272;28;20209;-79
2022/06/16 03:23:19;;;;;;;15.63;9.50;;;;;;;15.99;100.00;95142.69;4952759;28;20209;-79
2022/06/16 03:25:49;;;;;;;11.73;8.40;;;;;;;15.98;100.00;95135.06;4954586;28;20201;-79
2022/06/16 03:28:18;;;;;;;14.03;9.30;;;;;;;15.99;100.00;95134.03;4955532;28;20205;-78
2022/06/16 03:30:48;;;;;;;21.53;14.13;;;;;;;15.90;100.00;95131.03;4955305;28;20648;-79
2022/06/16 03:33:22;;;;;;;18.67;12.97;;;;;;;15.84;100.00;95137.22;4951468;28;20201;-79
2022/06/16 03:35:49;;;;;;;17.17;11.13;;;;;;;15.78;100.00;95131.09;4952627;28;20243;-79
2022/06/16 03:38:23;;;;;;;19.10;10.30;;;;;;;15.82;100.00;95134.03;4961921;28;20209;-79
2022/06/16 03:40:52;;;;;;;16.17;10.20;;;;;;;15.70;100.00;95131.47;4953244;28;20949;-79
2022/06/16 03:43:22;;;;;;;15.13;10.63;;;;;;;15.55;100.00;95125.22;4959510;28;20213;-79
2022/06/16 03:45:57;;;;;;;14.90;10.07;;;;;;;15.52;100.00;95134.34;4962033;28;20213;-79
2022/06/16 03:48:33;;;;;;;16.73;9.90;;;;;;;15.58;100.00;95132.59;4956134;28;20216;-79
2022/06/16 03:51:08;;;;;;;16.63;10.03;;;;;;;15.62;100.00;95131.88;4959360;28;20216;-79
2022/06/16 03:53:44;;;;;;;11.70;9.17;;;;;;;15.67;100.00;95139.03;4941092;28;20201;-79
2022/06/16 03:56:18;;;;;;;12.17;9.63;;;;;;;15.67;100.00;95137.19;4936012;28;20225;-79
2022/06/16 03:58:54;;;;;;;19.03;9.83;;;;;;;15.57;100.00;95123.94;4936328;28;20672;-79
2022/06/16 04:01:26;;;;;;;17.30;10.27;;;;;;;15.66;100.00;95132.19;4942574;28;20240;-79
2022/06/16 04:04:10;;;;;;;16.97;10.10;;;;;;;15.63;100.00;95127.44;4938541;28;20300;-79
2022/06/16 04:06:44;;;;;;;13.97;9.70;;;;;;;15.74;100.00;95134.41;4940669;28;20221;-79
2022/06/16 04:09:18;;;;;;;14.77;9.90;;;;;;;15.69;100.00;95136.97;4945066;28;20211;-79
2022/06/16 04:11:50;;;;;;;17.53;10.77;;;;;;;15.64;100.00;95137.66;4935670;28;20265;-78
2022/06/16 04:14:20;;;;;;;17.47;10.73;;;;;;;15.62;100.00;95134.50;4941225;28;20288;-78
2022/06/16 04:16:53;;;;;;;23.43;11.03;;;;;;;15.60;100.00;95127.91;4941893;28;20230;-77
2022/06/16 04:19:24;;;;;;;14.97;10.80;;;;;;;15.67;100.00;95139.03;4948040;28;20713;-77
2022/06/16 04:21:57;;;;;;;15.00;9.80;;;;;;;15.76;100.00;95135.78;4941239;28;20407;-78
2022/06/16 04:24:33;;;;;;;13.27;9.27;;;;;;;15.86;100.00;95135.94;4943273;28;20332;-79
2022/06/16 04:27:06;;;;;;;11.17;9.60;;;;;;;15.82;100.00;95132.19;4937999;28;20260;-79
2022/06/16 04:29:39;;;;;;;14.97;10.07;;;;;;;15.95;100.00;95143.41;4938767;28;20213;-79
2022/06/16 04:32:10;;;;;;;12.90;9.57;;;;;;;15.96;100.00;95137.91;4936570;28;20245;-78
2022/06/16 04:34:42;;;;;;;17.27;10.00;;;;;;;15.98;100.00;95135.06;4942825;28;20205;-76
2022/06/16 04:37:16;;;;;;;16.60;9.70;;;;;;;16.12;100.00;95133.69;4925882;28;20205;-78
2022/06/16 04:39:51;;;;;;;14.57;10.30;;;;;;;16.27;100.00;95141.81;4942676;28;20288;-78
2022/06/16 04:42:22;;;;;;;15.40;9.97;;;;;;;16.34;100.00;95137.16;4936215;28;20220;-78
2022/06/16 04:44:56;;;;;;;12.77;10.17;;;;;;;16.15;100.00;95128.78;4938876;28;20690;-79
2022/06/16 04:47:25;;;;;;;15.13;10.17;;;;;;;16.18;100.00;95141.41;4937861;28;20233;-80
2022/06/16 04:49:55;;;;;;;19.13;9.97;;;;;;;16.16;100.00;95138.22;4936961;28;20213;-80
2022/06/16 04:52:26;;;;;;;17.83;11.50;;;;;;;16.13;100.00;95137.94;4954179;28;20244;-79
2022/06/16 04:55:01;;;;;;;14.53;10.87;;;;;;;15.99;100.00;95141.91;4955234;28;21062;-80
2022/06/16 04:57:36;;;;;;;15.33;11.20;;;;;;;15.88;100.00;95130.44;4958259;28;20288;-79
2022/06/16 05:00:10;;;;;;;17.60;10.90;;;;;;;15.90;100.00;95149.38;4962413;28;20239;-80
2022/06/16 05:02:44;;;;;;;13.57;11.50;;;;;;;15.99;100.00;95147.91;4960334;28;20664;-79
2022/06/16 05:05:17;;;;;;;17.63;12.00;;;;;;;16.10;100.00;95135.78;4961736;28;20198;-80
2022/06/16 05:07:51;;;;;;;18.13;12.47;;;;;;;16.15;100.00;95139.25;4961145;28;20291;-81
2022/06/16 05:10:26;;;;;;;21.33;12.20;;;;;;;16.17;100.00;95142.44;4967066;28;20304;-80
2022/06/16 05:12:57;;;;;;;20.03;11.93;;;;;;;16.26;100.00;95138.38;4964524;28;20304;-80
2022/06/16 05:15:28;;;;;;;16.27;12.37;;;;;;;16.30;100.00;95126.38;4963858;28;20213;-79
2022/06/16 05:18:00;;;;;;;16.87;12.27;;;;;;;16.41;100.00;95138.59;4959454;28;20205;-80
2022/06/16 05:20:33;;;;;;;18.07;12.63;;;;;;;16.51;100.00;95142.41;4954713;28;20197;-80
2022/06/16 05:23:07;;;;;;;21.87;13.40;;;;;;;16.64;100.00;95139.44;4966110;28;20217;-82
2022/06/16 05:25:45;;;;;;;22.00;13.83;;;;;;;16.68;100.00;95138.69;4960292;28;20683;-80
2022/06/16 05:28:18;;;;;;;23.07;13.03;;;;;;;16.69;100.00;95144.75;4958928;28;20259;-80
2022/06/16 05:30:52;;;;;;;19.87;13.03;;;;;;;16.75;100.00;95141.16;4964281;28;20196;-80
2022/06/16 05:33:35;;;;;;;22.43;13.77;;;;;;;16.85;100.00;95141.28;4956416;28;20229;-79
2022/06/16 05:36:16;;;;;;;19.33;14.20;;;;;;;16.83;100.00;95140.72;4961245;28;20252;-79
2022/06/16 05:38:51;;;;;;;26.50;14.93;;;;;;;16.78;100.00;95140.66;4965230;28;20267;-82
2022/06/16 05:41:38;;;;;;;20.90;14.47;;;;;;;16.80;100.00;95152.50;4963365;28;20213;-82
2022/06/16 05:44:17;;;;;;;24.30;15.63;;;;;;;16.87;100.00;95155.75;4962868;28;20209;-82
2022/06/16 05:46:59;;;;;;;23.53;14.47;;;;;;;16.91;100.00;95148.97;4958868;28;20545;-80
2022/06/16 05:49:42;;;;;;;23.97;14.43;;;;;;;16.97;100.00;95153.22;4963195;28;20197;-82
2022/06/16 05:52:21;;;;;;;28.17;15.73;;;;;;;17.08;100.00;95151.53;4957900;28;20235;-81
2022/06/16 05:54:58;;;;;;;22.03;15.57;;;;;;;17.15;100.00;95159.22;4961779;28;20207;-82
2022/06/16 05:57:40;;;;;;;24.17;14.63;;;;;;;16.98;100.00;95143.53;4968184;28;20224;-81
2022/06/16 06:00:21;;;;;;;20.20;14.70;;;;;;;17.19;100.00;95157.69;4963123;28;20672;-79
2022/06/16 06:03:04;;;;;;;29.83;14.83;;;;;;;17.31;100.00;95148.63;4959566;28;20659;-79
2022/06/16 06:05:41;;;;;;;29.43;16.10;;;;;;;17.36;100.00;95150.50;4962077;28;20296;-78
2022/06/16 06:16:54;;;;;;;26.60;16.20;;;;;;;17.73;100.00;95148.78;4927652;28;20608;-80
2022/06/16 06:19:33;;;;;;;28.23;16.77;;;;;;;17.88;100.00;95150.75;4968500;28;20746;-80
2022/06/16 06:22:11;;;;;;;26.40;15.83;;;;;;;17.96;100.00;95145.84;4964611;28;20642;-80
2022/06/16 06:24:52;;;;;;;26.50;16.20;;;;;;;18.02;100.00;95149.28;4958295;28;20660;-80
2022/06/16 06:27:33;;;;;;;26.83;15.90;;;;;;;17.99;100.00;95153.22;4958120;28;20209;-79
2022/06/16 06:30:16;;;;;;;25.87;15.03;;;;;;;18.11;100.00;95153.06;4962928;28;20209;-81
2022/06/16 06:32:50;;;;;;;22.87;16.17;;;;;;;18.15;100.00;95160.19;4964695;28;20300;-77
2022/06/16 06:35:27;;;;;;;28.03;17.30;;;;;;;18.24;100.00;95157.09;4964110;28;20206;-80
2022/06/16 06:38:02;;;;;;;27.43;18.57;;;;;;;18.42;100.00;95160.09;4963223;28;20655;-75
2022/06/16 06:40:40;;;;;;;28.53;18.40;;;;;;;18.53;100.00;95164.41;4969196;28;20758;-82
2022/06/16 06:43:21;;;;;;;28.95;19.83;;;;;;;18.60;100.00;95161.56;4959237;28;20213;-82
2022/06/16 06:46:06;;;;;;;33.75;20.17;;;;;;;18.73;100.00;95163.72;4958583;28;20213;-80
2022/06/16 06:48:47;;;;;;;24.10;17.70;;;;;;;18.74;100.00;95152.16;4955578;28;20217;-82
2022/06/16 06:51:30;;;;;;;32.77;18.37;;;;;;;18.78;100.00;95152.44;4960332;28;20237;-82
2022/06/16 06:54:14;;;;;;;33.00;18.23;;;;;;;18.87;100.00;95138.53;4962789;28;20211;-83
2022/06/16 06:56:47;;;;;;;32.95;18.63;;;;;;;19.00;100.00;95143.31;4959066;28;20300;-83
2022/06/16 06:59:30;;;;;;;28.60;18.67;;;;;;;18.99;100.00;95151.50;4963353;28;20291;-83
2022/06/16 07:02:24;;;;;;;33.00;20.23;;;;;;;19.08;100.00;95156.00;4960104;28;20204;-83
2022/06/16 07:05:03;;;;;;;27.77;17.98;;;;;;;19.15;100.00;95143.38;4961688;28;20210;-81
2022/06/16 07:07:39;;;;;;;28.15;18.73;;;;;;;19.34;100.00;95151.59;4959947;28;20264;-80
2022/06/16 07:10:19;;;;;;;34.22;19.90;;;;;;;19.49;100.00;95154.28;4966635;28;20207;-87
2022/06/16 07:12:59;;;;;;;28.55;18.83;;;;;;;19.58;100.00;95152.72;4956226;28;20196;-80
2022/06/16 07:15:41;;;;;;;32.07;19.77;;;;;;;19.67;100.00;95151.16;4963970;28;20683;-81
2022/06/16 07:18:23;;;;;;;26.77;20.08;;;;;;;19.76;100.00;95146.16;4964592;28;20230;-82
2022/06/16 07:20:55;;;;;;;32.95;19.70;;;;;;;19.86;100.00;95148.00;4958844;28;20671;-81
2022/06/16 07:23:34;;;;;;;25.02;19.17;;;;;;;19.94;100.00;95140.34;4960594;28;20283;-81
2022/06/16 07:26:13;;;;;;;28.02;19.55;;;;;;;20.01;100.00;95140.09;4962456;28;20292;-81
2022/06/16 07:28:47;;;;;;;29.40;19.73;;;;;;;20.23;100.00;95151.97;4953871;28;20590;-81
2022/06/16 07:31:19;;;;;;;27.65;18.23;;;;;;;20.38;99.95;95146.69;4956803;28;20613;-81
2022/06/16 07:33:58;;;;;;;27.95;19.15;;;;;;;20.48;98.52;95145.91;4957584;28;20210;-82
2022/06/16 07:36:33;;;;;;;24.83;17.50;;;;;;;20.52;99.60;95146.16;4963004;28;20580;-82
2022/06/16 07:39:11;;;;;;;33.63;18.90;;;;;;;20.59;100.00;95147.47;4961300;28;20722;-81
2022/06/16 07:41:45;;;;;;;31.52;19.95;;;;;;;20.68;96.68;95139.78;4964130;28;20204;-82
2022/06/16 07:44:20;;;;;;;31.15;19.70;;;;;;;20.70;96.15;95145.56;4960946;28;20209;-84
2022/06/16 07:46:54;;;;;;;27.17;19.17;;;;;;;20.78;95.60;95131.78;4961837;28;20224;-85
2022/06/16 07:49:39;;;;;;;32.88;18.92;;;;;;;20.93;95.77;95135.19;4961932;28;20216;-84
2022/06/16 07:52:17;;;;;;;28.73;19.20;;;;;;;21.03;95.26;95138.84;4957007;28;20237;-82
2022/06/16 07:54:57;;;;;;;26.52;18.70;;;;;;;21.08;95.37;95133.56;4956471;28;20208;-78
2022/06/16 07:57:34;;;;;;;26.73;19.05;;;;;;;21.07;95.27;95137.28;4966410;28;20239;-79
2022/06/16 08:00:28;;;;;;;33.50;19.73;;;;;;;21.00;96.94;95142.84;4959277;28;20710;-78
2022/06/16 08:03:04;;;;;;;31.13;19.38;;;;;;;21.01;96.20;95143.63;4959615;28;20664;-82
2022/06/16 08:05:48;;;;;;;32.78;19.30;;;;;;;21.07;93.09;95137.28;4958988;28;20207;-82
2022/06/16 08:08:22;;;;;;;28.75;18.77;;;;;;;21.14;92.24;95137.78;4959133;28;20264;-82
2022/06/16 08:10:55;;;;;;;30.88;20.15;;;;;;;21.14;92.14;95138.56;4965165;28;20259;-83
2022/06/16 08:13:27;;;;;;;28.88;19.55;;;;;;;21.23;91.60;95129.00;4962721;28;20216;-83
2022/06/16 08:16:05;;;;;;;28.90;19.98;;;;;;;21.45;91.56;95144.50;4958051;28;20589;-83
2022/06/16 08:18:41;;;;;;;27.45;19.67;;;;;;;21.49;90.26;95143.69;4958480;28;20704;-83
2022/06/16 08:21:20;;;;;;;25.92;19.88;;;;;;;21.62;89.21;95146.75;4964516;28;20619;-82
2022/06/16 08:23:55;;;;;;;28.02;18.70;;;;;;;21.78;88.40;95150.91;4961490;28;20221;-83
2022/06/16 08:26:31;;;;;;;25.77;19.00;;;;;;;21.83;86.79;95153.50;4962619;28;20662;-83
2022/06/16 08:29:03;;;;;;;25.33;18.45;;;;;;;21.93;83.01;95153.47;4963738;28;20232;-83
2022/06/16 08:31:41;;;;;;;23.83;18.80;;;;;;;22.12;83.30;95153.59;4958353;28;20570;-81
2022/06/16 08:34:16;;;;;;;28.20;17.75;;;;;;;22.19;80.34;95149.56;4958889;28;20208;-80
2022/06/16 08:36:59;;;;;;;25.67;18.55;;;;;;;22.28;80.73;95149.75;4964012;28;20266;-80
2022/06/16 08:39:31;;;;;;;25.02;18.63;;;;;;;22.43;80.76;95147.75;4960341;28;20213;-83
2022/06/16 08:42:14;;;;;;;24.50;18.02;;;;;;;22.45;80.40;95145.59;4965705;28;20237;-82
2022/06/16 08:44:59;;;;;;;26.75;19.58;;;;;;;22.48;79.29;95144.28;4961338;28;20221;-82
2022/06/16 08:47:42;;;;;;;25.77;18.88;;;;;;;22.59;80.30;95148.41;4958390;28;20193;-82
2022/06/16 08:50:37;;;;;;;26.02;18.27;;;;;;;22.78;79.69;95145.84;4961559;28;20589;-82
2022/06/16 08:53:25;;;;;;;24.02;17.25;;;;;;;22.80;76.28;95144.47;4962707;28;20335;-81
2022/06/16 08:58:58;;;;;;;21.63;16.98;;;;;;;22.84;75.91;95139.41;4958786;28;20235;-82
2022/06/16 09:01:41;;;;;;;22.48;17.27;;;;;;;22.80;75.79;95141.81;4964530;28;20689;-82
2022/06/16 09:04:24;;;;;;;24.95;16.83;;;;;;;22.75;74.26;95133.94;4962583;28;20215;-82
2022/06/16 09:07:08;;;;;;;21.90;17.25;;;;;;;22.79;73.87;95142.13;4964168;28;20220;-81
2022/06/16 09:12:57;;;;;;;21.52;15.50;;;;;;;22.73;73.77;95140.59;4961571;28;20335;-80
2022/06/16 09:15:41;;;;;;;19.00;16.08;;;;;;;22.75;73.85;95133.94;4963194;28;20720;-81
2022/06/16 09:18:47;;;;;;;20.67;15.98;;;;;;;22.86;73.55;95130.09;4961554;28;20225;-81
2022/06/16 09:21:30;;;;;;;23.13;17.17;;;;;;;22.87;73.28;95136.97;4954267;28;20375;-81
2022/06/16 09:24:35;;;;;;;23.75;17.70;;;;;;;22.91;73.60;95135.34;4959034;28;20596;-80
2022/06/16 09:27:17;;;;;;;23.25;17.85;;;;;;;22.97;72.41;95131.53;4961819;28;20204;-75
2022/06/16 09:29:59;;;;;;;33.22;20.45;;;;;;;23.11;73.02;95119.19;4963439;28;20280;-76
2022/06/16 09:32:50;;;;;;;23.33;16.25;;;;;;;23.26;70.56;95120.84;4965747;28;20224;-76
2022/06/16 09:35:36;;;;;;;22.98;16.83;;;;;;;23.41;69.71;95117.22;4964056;28;20205;-77
2022/06/16 09:38:18;;;;;;;18.17;15.18;;;;;;;23.56;69.36;95117.81;4965277;28;20247;-77
2022/06/16 09:40:59;;;;;;;22.60;17.05;;;;;;;23.79;67.71;95108.19;4964480;28;20260;-76
2022/06/16 09:43:42;;;;;;;21.48;14.85;;;;;;;23.93;68.16;95095.75;4962602;28;20213;-77
2022/06/16 09:46:21;;;;;;;19.40;15.70;;;;;;;23.88;65.75;95097.69;4961202;28;20205;-77
2022/06/16 09:49:02;;;;;;;18.58;15.65;;;;;;;23.97;66.14;95107.38;4965437;28;20641;-77
2022/06/16 09:51:41;;;;;;;18.40;15.00;;;;;;;24.05;66.26;95103.25;4967764;28;20733;-77
2022/06/16 09:54:24;;;;;;;20.42;15.15;;;;;;;24.24;65.98;95106.69;4962103;28;20208;-77
2022/06/16 09:57:05;;;;;;;21.88;14.38;;;;;;;24.48;66.52;95106.50;4963248;28;20244;-77
2022/06/16 09:59:56;;;;;;;20.17;13.75;;;;;;;24.70;63.24;95102.09;4960015;28;20204;-77
2022/06/16 10:02:35;;;;;;;20.30;13.85;;;;;;;24.85;62.25;95100.28;4963001;28;20212;-77
2022/06/16 10:05:19;;;;;;;17.98;14.23;;;;;;;24.88;62.55;95105.00;4962280;28;20217;-76
2022/06/16 10:08:05;;;;;;;16.50;14.13;;;;;;;24.86;62.07;95105.28;4966740;28;20197;-77
2022/06/16 10:10:49;;;;;;;18.67;14.80;;;;;;;24.77;62.36;95102.50;4968954;28;20216;-77
2022/06/16 10:13:34;;;;;;;17.23;15.27;;;;;;;24.76;62.24;95094.84;4959704;28;20216;-77
2022/06/16 10:16:19;;;;;;;20.75;14.50;;;;;;;24.88;62.24;95100.47;4962587;28;20205;-77
2022/06/16 10:18:56;;;;;;;17.20;14.05;;;;;;;24.88;62.67;95097.78;4962669;28;20200;-76
2022/06/16 10:21:36;;;;;;;15.50;13.10;;;;;;;24.72;60.28;95091.19;4962837;28;20216;-76
2022/06/16 10:24:16;;;;;;;18.35;14.30;;;;;;;24.78;61.09;95090.78;4957912;28;20779;-76
2022/06/16 10:26:52;;;;;;;16.40;13.75;;;;;;;24.80;61.18;95078.00;4966813;28;20362;-76
2022/06/16 10:29:31;;;;;;;16.65;13.68;;;;;;;24.87;60.82;95074.16;4965191;28;20216;-76
2022/06/16 10:32:19;;;;;;;16.20;13.68;;;;;;;24.93;59.61;95081.75;4961472;28;20692;-76
2022/06/16 10:35:00;;;;;;;17.02;14.40;;;;;;;24.74;60.04;95068.53;4957568;28;20214;-76
2022/06/16 10:37:38;;;;;;;16.83;13.77;;;;;;;24.85;59.55;95077.13;4957429;28;20638;-76
2022/06/16 10:40:21;;;;;;;16.70;13.23;;;;;;;24.98;58.60;95065.69;4957568;28;20216;-78
2022/06/16 10:43:05;;;;;;;15.75;13.43;;;;;;;25.18;57.53;95077.78;4965650;28;20213;-76
2022/06/16 10:45:48;;;;;;;17.85;13.75;;;;;;;25.38;59.21;95080.00;4966014;28;20219;-76
2022/06/16 10:48:40;;;;;;;19.05;13.75;;;;;;;25.61;58.83;95070.19;4962793;28;20635;-76
2022/06/16 10:51:20;;;;;;;16.85;13.98;;;;;;;25.89;57.83;95071.63;4958538;28;20268;-76
2022/06/16 10:54:10;;;;;;;20.05;13.50;;;;;;;26.12;56.88;95073.19;4962637;28;20216;-76
2022/06/16 10:56:47;;;;;;;14.70;13.05;;;;;;;26.46;57.11;95064.63;4961743;28;20196;-76
2022/06/16 10:59:33;;;;;;;15.10;13.20;;;;;;;26.66;55.39;95072.09;4962038;28;20284;-77
2022/06/16 11:02:25;;;;;;;18.90;14.02;;;;;;;26.93;54.73;95071.06;4956301;28;20213;-77
2022/06/16 11:05:18;;;;;;;17.13;13.52;;;;;;;27.05;53.75;95060.59;4959670;28;20212;-75
2022/06/16 11:07:56;;;;;;;19.95;14.13;;;;;;;27.03;53.58;95060.91;4965674;28;20203;-76
2022/06/16 11:10:39;;;;;;;15.73;13.40;;;;;;;27.07;54.06;95054.97;4964121;28;20583;-76
2022/06/16 11:13:24;;;;;;;17.92;12.93;;;;;;;27.24;53.10;95063.78;4959345;28;20204;-76
2022/06/16 11:16:11;;;;;;;16.38;13.23;;;;;;;27.05;52.62;95052.59;4961053;28;20755;-76
2022/06/16 11:18:53;;;;;;;15.23;13.45;;;;;;;26.87;53.04;95064.31;4959913;28;20235;-76
2022/06/16 11:21:35;;;;;;;19.17;13.30;;;;;;;26.75;53.29;95056.91;4962536;28;20247;-77
2022/06/16 11:24:27;;;;;;;19.35;13.75;;;;;;;26.88;53.65;95064.00;4960077;28;20201;-75
2022/06/16 11:27:13;;;;;;;17.42;13.13;;;;;;;26.68;53.36;95058.44;4967808;28;20208;-75
2022/06/16 11:29:47;;;;;;;15.35;13.40;;;;;;;26.65;53.37;95054.50;4967943;28;20208;-76
2022/06/16 11:32:31;;;;;;;18.58;14.43;;;;;;;26.46;53.50;95057.41;4961627;28;20204;-77
2022/06/16 11:35:16;;;;;;;18.83;14.43;;;;;;;26.22;54.22;95056.19;4958228;28;20284;-76
2022/06/16 11:38:06;;;;;;;19.05;13.57;;;;;;;26.07;53.93;95048.53;4958559;28;20220;-75
2022/06/16 11:40:51;;;;;;;14.73;13.15;;;;;;;26.13;52.86;95047.31;4959539;28;20216;-77
2022/06/16 11:43:55;;;;;;;17.70;13.73;;;;;;;26.03;55.06;95044.94;4960968;28;20213;-77
2022/06/16 11:46:41;;;;;;;18.38;14.90;;;;;;;26.26;55.15;95051.84;4963809;28;20609;-77
2022/06/16 11:49:29;;;;;;;15.95;13.98;;;;;;;26.46;54.92;95052.06;4965818;28;20279;-77
2022/06/16 11:52:17;;;;;;;15.05;12.52;;;;;;;26.62;53.76;95049.00;4967622;28;20707;-76
2022/06/16 11:55:09;;;;;;;15.48;12.30;;;;;;;26.68;51.75;95043.22;4963539;28;20213;-81
2022/06/16 11:57:51;;;;;;;17.52;13.23;;;;;;;27.03;50.71;95047.56;4957047;28;20221;-83
2022/06/16 12:00:31;;;;;;;15.50;12.30;;;;;;;27.22;49.84;95039.25;4955475;28;20212;-81
2022/06/16 12:03:22;;;;;;;16.05;13.30;;;;;;;27.36;49.52;95042.56;4950127;28;20241;-82
2022/06/16 12:06:15;;;;;;;17.58;12.15;;;;;;;27.76;49.20;95031.75;4961114;28;20291;-82
2022/06/16 12:08:58;;;;;;;13.52;12.02;;;;;;;28.35;47.24;95032.72;4948822;28;20770;-82
2022/06/16 12:11:39;;;;;;;15.82;12.20;;;;;;;28.71;46.55;95027.72;4961266;28;20205;-82
2022/06/16 12:14:23;;;;;;;13.13;11.68;;;;;;;29.24;45.62;95041.28;4965765;28;20205;-82
2022/06/16 12:17:07;;;;;;;19.05;13.20;;;;;;;29.47;47.09;95036.38;4960162;28;20675;-83
2022/06/16 12:19:51;;;;;;;15.43;12.75;;;;;;;29.63;47.11;95032.00;4957068;28;20526;-84
2022/06/16 12:22:38;;;;;;;16.55;13.07;;;;;;;29.64;45.82;95033.56;4955663;28;20213;-79
2022/06/16 12:25:22;;;;;;;14.10;12.10;;;;;;;29.78;45.54;95033.31;4956859;28;20319;-80